Aviation Digital Data Service (ADDS)

Output produced by METARs form (2332 UTC 21 September 2021)
found at http://aviationweather.gov/metar/data/
 
KBOS 212320Z 2200/2306 12007KT P6SM VCSH BKN050 
     FM220700 14006KT P6SM OVC015 
     FM221000 15007KT P6SM OVC008 
     FM221600 14008KT P6SM OVC040 
     FM230100 14008KT P6SM BKN150
       
KLGA 212324Z 2200/2306 14009KT P6SM FEW019 BKN035 
     FM220100 10006KT P6SM FEW019 SCT035 BKN250 
     FM220800 12008KT P6SM VCSH SCT010 BKN025 
     TEMPO 2211/2213 SCT010 BKN015 
     FM221500 14012G18KT P6SM BKN020 
     FM221800 14015G23KT P6SM SCT025 SCT050 BKN120 
     FM230100 13012KT P6SM SCT020 BKN080
       
KEWR 212324Z 2200/2306 12005KT P6SM FEW018 SCT035 BKN250 
     FM220100 09005KT P6SM FEW018 SCT025 BKN250 
     FM220800 11006KT P6SM FEW010 BKN025 
     TEMPO 2209/2213 FEW010 BKN015 
     FM221500 14011G19KT P6SM BKN020 
     FM221800 14013G21KT P6SM SCT025 SCT050 BKN120 
     FM230000 14010KT P6SM SCT020 BKN060
       
KJFK 212324Z 2200/2306 11008KT P6SM FEW025 SCT035 BKN250 
     FM220800 13008KT P6SM VCSH FEW008 BKN025 
     TEMPO 2211/2213 SCT008 BKN015 
     FM221400 14014KT P6SM BKN020 
     FM221800 15016G23KT P6SM SCT025 SCT050 BKN120 
     FM230100 14014KT P6SM SCT020 BKN080
       
KPHL 212323Z 2200/2306 12006KT P6SM BKN060 
     FM220600 10004KT 6SM BR BKN020 
     TEMPO 2208/2212 BKN008 
     FM221400 15008KT P6SM BKN035 
     FM221700 16012G23KT P6SM SCT025 BKN040 
     FM230000 14010KT P6SM BKN015
       
KIAD 212320Z 2200/2306 12006KT P6SM OVC040 
     FM220600 13006KT 6SM -SHRA OVC015 
     FM220900 14008KT 5SM -SHRA BR OVC008 
     FM221700 15012KT 6SM -SHRA BR OVC025 
     FM222200 14013KT 4SM SHRA BR OVC008
       
KBWI 212320Z 2200/2306 12007KT P6SM OVC060 
     FM220600 11006KT P6SM OVC015 
     FM221100 14010KT P6SM OVC008 
     FM221700 15015G23KT 6SM -SHRA OVC025 
     FM230000 14013KT 5SM SHRA OVC010
       
KDCA 212320Z 2200/2306 12008KT P6SM OVC060 
     FM220600 12006KT 6SM SHRA OVC015 
     FM221600 15012G22KT 6SM -SHRA OVC030 
     FM222200 14012G24KT 5SM -SHRA BR OVC015 
     FM230000 14011G20KT 6SM -SHRA OVC010
       
KCLT 212157Z 2122/2224 06006KT P6SM VCSH SCT007 OVC013 
     FM220200 12005KT 4SM BR VCSH OVC004 
     FM220800 16004KT 4SM BR VCSH OVC004 
     FM221500 19007KT P6SM VCSH BKN015 
     FM221900 21009KT 6SM SHRA BR BKN024 
     PROB30 2219/2224 3SM TSRA BR OVC015CB
       
KATL 212145Z 2122/2224 09005KT P6SM VCSH SCT025 BKN050 
     TEMPO 2122/2124 3SM SHRA BKN025 
     FM220300 09004KT P6SM BKN008 
     FM220800 15003KT 5SM BR VCSH BKN004 
     FM221300 22005KT P6SM -SHRA BKN006 
     TEMPO 2214/2217 4SM -TSRA BKN012CB 
     FM221700 32013G22KT P6SM SCT025 
     FM222100 32014KT P6SM SCT100
       
KMCO 212041Z 2121/2224 15007KT P6SM VCSH FEW015 SCT040 BKN200 
     FM220100 VRB04KT P6SM FEW030 BKN200 
     TEMPO 2209/2212 SCT008 BKN015 BKN040 
     FM221300 20005KT P6SM SCT015 BKN030 
     FM221700 24006KT P6SM VCSH SCT025 SCT050 BKN250
       
KTPA 212109Z 2121/2224 29010KT P6SM VCTS SCT030CB BKN050 
     TEMPO 2121/2122 VRB12G20KT 4SM +TSRA BKN030CB 
     FM220000 08005KT P6SM VCSH SCT030 BKN050 
     FM220300 VRB03KT P6SM FEW020 SCT120 BKN250 
     FM221200 VRB03KT P6SM VCSH SCT020 SCT120 BKN250 
     FM221500 22005KT P6SM VCTS SCT025CB SCT120 BKN250 
     FM221800 25007KT P6SM VCTS SCT030CB BKN050
       
KFLL 212259Z 2123/2224 10010KT P6SM VCTS SCT025CB BKN050 
     TEMPO 2123/2124 VRB15G25KT 3SM TSRA SCT015 BKN025CB 
     FM220000 VRB05KT P6SM FEW025 SCT250 
     FM221400 12007KT P6SM SCT025 SCT050 
     FM221700 16010KT P6SM VCTS SCT025CB BKN050
       
KMIA 212107Z 2121/2224 10010KT P6SM VCTS SCT025CB BKN050 
     FM220000 VRB05KT P6SM FEW025 SCT250 
     FM221400 12007KT P6SM SCT025 SCT050 
     FM221700 16010KT P6SM VCTS SCT025CB BKN050
       
KDTW 212102Z 2121/2224 20010KT 6SM -SHRA SCT015 OVC040 
     TEMPO 2122/2201 3SM RA BR OVC015 
     FM220100 01009KT 3SM RA BR BKN006 OVC015 
     FM220900 36012KT 4SM RA BR OVC008 
     FM221500 01016G26KT 4SM RA BR OVC010 
     FM222100 01017G28KT 6SM -RA BR OVC012
       
KMSP 212322Z 2200/2306 32012G20KT P6SM FEW050 
     FM220100 34004KT P6SM SKC 
     FM221600 03004KT P6SM FEW060 
     FM230100 15004KT P6SM SKC
       
KORD 212327Z 2200/2306 01013G19KT P6SM VCSH SCT030 OVC040 
     FM220400 01014G22KT P6SM VCSH SCT025 BKN045 
     FM221200 01019G31KT P6SM VCSH BKN025 
     FM221900 36022G34KT P6SM SCT035 BKN100 
     FM230400 35018G30KT P6SM SCT030 BKN100
       
KMDW 212327Z 2200/2306 01013G20KT P6SM VCSH SCT030 BKN040 
     FM220400 01014G22KT P6SM VCSH SCT025 BKN045 
     FM221200 01019G32KT P6SM VCSH BKN025 
     FM222000 36022G35KT P6SM SCT035 BKN100 
     FM230400 36018G30KT P6SM SCT030 BKN100
       
KMEM 212252Z 2123/2224 32007KT P6SM VCSH SCT030 OVC045 
     FM220000 36010G16KT P6SM -SHRA VCTS SCT009CB OVC020 
     FM220600 35011G18KT P6SM VCSH BKN040 
     FM220900 34010KT P6SM SKC 
     FM221600 33014G20KT P6SM SKC
       
KDFW 212320Z 2200/2306 36020G30KT P6SM FEW150 SCT250 
     FM220300 01011KT P6SM FEW250
       
KIAH 212321Z 2200/2306 34007KT P6SM VCTS SCT050CB 
     FM220300 36012KT P6SM SCT100 
     FM221400 02014G22KT P6SM FEW250 
     FM222300 03009KT P6SM SKC
       
KDEN 212044Z 2121/2224 09007KT P6SM FEW080 
     FM220300 14010KT P6SM FEW080 
     FM220700 20009KT P6SM FEW090 
     FM221200 25007KT P6SM SKC 
     FM221600 VRB06KT P6SM SKC 
     FM222000 10007KT P6SM SKC
       
KSLC 212320Z 2200/2306 33006KT P6SM SKC 
     FM220400 15007KT P6SM SKC 
     FM221800 33008KT P6SM FEW200 
     FM230300 15006KT P6SM SCT150
       
KSEA 212322Z 2200/2306 31007KT P6SM FEW250 
     FM220300 03004KT P6SM FEW250 
     FM221300 21005KT P6SM BKN150 
     FM221900 23007KT P6SM BKN070 OVC150 
     FM222200 24007KT P6SM BKN045 OVC090 
     FM230100 01004KT P6SM OVC050
       
KSFO 212328Z 2200/2306 29012KT P6SM FEW200 
     FM220300 30008KT P6SM FEW200 
     FM221000 VRB05KT P6SM FEW011 
     FM222100 29012KT P6SM FEW200 
     FM230400 29008KT P6SM SKC
       
KLAX 212054Z 2121/2224 27012KT P6SM SKC 
     FM220400 26006KT P6SM SKC 
     FM220900 VRB03KT 1SM BR OVC005 
     FM221600 26006KT 6SM BR BKN007 
     FM221800 26010KT P6SM SCT008
       
KSAN 212320Z 2200/2306 29009KT P6SM SKC 
     FM220200 VRB04KT P6SM SKC 
     FM220800 VRB04KT P6SM SCT006 
     FM221600 VRB04KT P6SM SKC 
     FM221900 30008KT P6SM SKC 
     FM230200 VRB04KT P6SM SKC
       
KLAS 212330Z 2200/2306 08005KT P6SM SKC 
     FM220400 24006KT P6SM SKC 
     FM221600 10006KT P6SM SKC 
     FM230200 21006KT P6SM SKC
       
KPHX 212320Z 2200/2306 27006KT P6SM SKC 
     FM220700 09008KT P6SM SKC 
     TEMPO 2215/2218 10010G18KT 
     FM222200 VRB05KT P6SM SKC
       
KSDF 212324Z 2200/2306 00000KT P6SM VCSH SCT025 OVC035 
     FM220200 34005KT 6SM -SHRA BR OVC019 
     TEMPO 2202/2204 2SM TSRA BR OVC015CB 
     FM220900 31005KT 4SM -SHRA OVC007 
     FM221200 32010G21KT 6SM -SHRA OVC019 
     FM222300 30010KT P6SM OVC025
       
KIND 212320Z 2200/2306 33008KT 6SM SHRA BR VCTS OVC015CB 
     TEMPO 2200/2202 SCT015CB BKN050 
     FM220400 36011G21KT 6SM SHRA BR OVC008 
     FM220600 35015G25KT 5SM SHRA BR OVC012 
     FM221200 35015G23KT 3SM SHRA BR OVC015 
     FM221800 34014G26KT 2SM SHRA BR OVC008 
     FM222100 33014G25KT 4SM SHRA BR OVC015
       
KCVG 212331Z 2200/2306 17005KT P6SM VCSH FEW014 BKN022 
     FM220200 14004KT 4SM SHRA BR BKN015 
     FM220400 13006KT 4SM SHRA BR OVC007 
     FM220700 31010G16KT 4SM SHRA BR OVC004 
     FM221400 30015G21KT 5SM -SHRA BR OVC008 
     FM221800 30012KT P6SM VCSH BKN013 
     FM230300 27009KT P6SM BKN009